Time;durP1;ratioP1;P1;durP2;ratioP2;P2;SDS_P1;SDS_P2;PMS_P1;PMS_P2;Temp;Humidity;BMP_temperature;BMP_pressure;BME280_temperature;BME280_humidity;BME280_pressure;Samples;Min_cycle;Max_cycle;Signal;HPM_P1;HPM_P2
2021/01/21 00:01:50;;;;;;;1.90;1.00;;;10.30;99.90;;;9.09;95.48;98811.97;4138489;28;20027;-74
2021/01/21 00:03:51;;;;;;;1.90;1.20;;;10.20;99.90;;;9.19;93.21;98803.75;4137161;28;20027;-75
2021/01/21 00:05:51;;;;;;;3.03;0.98;;;10.20;99.90;;;9.21;93.91;98830.66;4138039;28;20022;-74
2021/01/21 00:07:52;;;;;;;2.42;1.40;;;10.20;99.90;;;9.16;93.01;98830.44;4137494;28;20061;-75
2021/01/21 00:09:53;;;;;;;2.78;0.95;;;10.10;99.90;;;8.94;93.40;98811.28;4138408;28;20118;-74
2021/01/21 00:11:54;;;;;;;2.25;1.17;;;10.10;99.90;;;9.06;91.74;98835.22;4138325;28;20497;-75
2021/01/21 00:13:55;;;;;;;1.45;0.90;;;10.10;99.90;;;8.89;88.04;98837.34;4137669;28;20034;-75
2021/01/21 00:15:56;;;;;;;3.50;0.90;;;10.00;99.90;;;8.90;88.55;98845.03;4138181;28;20030;-74
2021/01/21 00:17:57;;;;;;;2.47;0.90;;;10.00;99.90;;;9.04;87.72;98848.56;4138320;28;20085;-74
2021/01/21 00:19:58;;;;;;;4.82;1.40;;;10.00;99.90;;;8.96;88.33;98853.16;4136967;28;20129;-75
2021/01/21 00:21:59;;;;;;;2.25;1.00;;;9.90;99.90;;;8.76;89.00;98830.16;4137742;28;20445;-74
2021/01/21 00:24:00;;;;;;;1.60;0.90;;;9.90;99.90;;;8.80;90.15;98843.75;4138018;28;20026;-75
2021/01/21 00:26:01;;;;;;;1.77;1.00;;;9.90;99.90;;;8.88;90.97;98896.19;4138345;28;20027;-74
2021/01/21 00:28:02;;;;;;;2.72;1.13;;;9.80;99.90;;;9.08;90.17;98893.72;4137525;28;20037;-74
2021/01/21 00:30:10;;;;;;;3.67;1.10;;;9.80;99.90;;;8.87;88.55;98874.31;4137974;28;20031;-74
2021/01/21 00:32:11;;;;;;;2.47;0.93;;;9.80;99.90;;;8.49;87.47;98886.13;4137099;28;20035;-75
2021/01/21 00:34:12;;;;;;;3.83;1.05;;;9.70;99.90;;;8.62;87.54;98881.00;4138066;28;20445;-74
2021/01/21 00:36:13;;;;;;;5.68;1.40;;;9.60;99.90;;;8.60;88.02;98906.63;4137411;28;20068;-75
2021/01/21 00:38:14;;;;;;;4.05;2.03;;;9.50;99.90;;;8.42;88.88;98890.53;4136785;28;20029;-75
2021/01/21 00:40:15;;;;;;;4.65;1.20;;;9.40;99.90;;;8.55;89.25;98911.66;4138076;28;20106;-75
2021/01/21 00:42:16;;;;;;;4.63;1.50;;;9.30;99.90;;;8.29;89.01;98903.50;4136563;28;20030;-75
2021/01/21 00:44:17;;;;;;;2.88;1.35;;;9.20;99.90;;;8.20;89.96;98901.97;4126538;28;20035;-75
2021/01/21 00:46:18;;;;;;;4.90;1.35;;;9.10;99.90;;;8.26;90.36;98948.50;4120559;28;20426;-74
2021/01/21 00:48:19;;;;;;;4.25;1.30;;;9.10;99.90;;;8.19;90.49;98929.22;4121853;28;20031;-74
2021/01/21 00:50:21;;;;;;;4.63;1.60;;;9.00;99.90;;;7.98;90.72;98916.03;4121542;28;20117;-74
2021/01/21 00:52:22;;;;;;;2.95;1.20;;;8.90;99.90;;;8.08;90.78;98933.16;4135757;28;20026;-74
2021/01/21 00:54:23;;;;;;;3.90;2.38;;;8.90;99.90;;;8.15;89.48;98927.97;4124082;28;20047;-74
2021/01/21 00:56:24;;;;;;;5.38;1.42;;;8.90;99.90;;;7.89;90.91;98930.25;4120544;28;20033;-74
2021/01/21 00:58:24;;;;;;;3.95;1.13;;;8.80;99.90;;;7.88;91.48;98923.41;4120008;28;20027;-75
2021/01/21 01:00:25;;;;;;;5.53;1.50;;;8.80;99.90;;;8.01;91.87;98969.00;4120636;28;20077;-74
2021/01/21 01:02:26;;;;;;;3.30;1.33;;;8.70;99.90;;;7.90;90.98;98937.16;4119068;28;20031;-75
2021/01/21 01:04:28;;;;;;;7.03;1.40;;;8.70;99.90;;;7.91;91.46;98954.53;4120850;28;20058;-74
2021/01/21 01:06:29;;;;;;;3.63;1.42;;;8.70;99.90;;;8.02;90.96;98962.75;4120397;28;20019;-74
2021/01/21 01:08:30;;;;;;;4.18;1.60;;;8.70;99.90;;;8.14;90.55;98992.81;4120531;28;20030;-74
2021/01/21 01:10:31;;;;;;;4.50;2.28;;;8.70;99.90;;;7.78;90.52;98927.13;4120422;28;20038;-74
2021/01/21 01:12:32;;;;;;;11.07;1.85;;;8.70;99.90;;;7.89;91.24;98953.88;4118729;28;20537;-75
2021/01/21 01:14:33;;;;;;;5.25;1.58;;;8.70;99.90;;;7.96;90.47;98983.69;4120521;28;20030;-74
2021/01/21 01:16:34;;;;;;;7.05;1.30;;;8.70;99.90;;;8.08;89.86;99011.09;4120380;28;20121;-75
2021/01/21 01:18:35;;;;;;;9.85;1.75;;;8.60;99.90;;;7.77;90.85;98985.84;4120406;28;20482;-74
2021/01/21 01:20:36;;;;;;;5.85;2.22;;;8.60;99.90;;;7.56;90.66;98966.56;4119077;28;20035;-74
2021/01/21 01:22:37;;;;;;;4.28;1.45;;;8.60;99.90;;;7.82;90.73;98988.75;4120382;28;20121;-75
2021/01/21 01:24:38;;;;;;;5.47;1.80;;;8.50;99.90;;;7.84;90.94;99006.94;4120307;28;20510;-75
2021/01/21 01:26:38;;;;;;;6.85;1.80;;;8.60;99.90;;;7.77;90.88;98996.34;4119134;28;20051;-75
2021/01/21 01:28:42;;;;;;;3.97;2.15;;;8.60;99.90;;;7.91;90.96;99014.91;4119746;28;20058;-75
2021/01/21 01:30:42;;;;;;;8.15;2.92;;;8.50;99.90;;;7.65;90.18;98989.09;4120571;28;20026;-75
2021/01/21 01:32:48;;;;;;;8.40;2.78;;;8.50;99.90;;;7.85;90.90;99026.16;4120643;28;20023;-75
2021/01/21 01:34:49;;;;;;;8.40;3.17;;;8.50;99.90;;;7.67;90.55;99016.81;4119714;28;20037;-74
2021/01/21 01:36:50;;;;;;;7.50;3.10;;;8.50;99.90;;;7.74;90.45;99028.22;4119056;28;20035;-75
2021/01/21 01:38:51;;;;;;;8.95;3.83;;;8.40;99.90;;;7.67;90.65;99016.00;4119011;28;20051;-75
2021/01/21 01:40:52;;;;;;;9.60;3.10;;;8.40;99.90;;;7.45;91.14;99015.06;4120155;28;20029;-74
2021/01/21 01:42:53;;;;;;;6.68;3.08;;;8.30;99.90;;;7.67;90.55;99026.50;4132471;28;20394;-75
2021/01/21 01:44:54;;;;;;;5.13;2.72;;;8.30;99.90;;;7.66;90.55;99040.59;4120392;28;20038;-75
2021/01/21 01:46:55;;;;;;;5.97;2.30;;;8.30;99.90;;;7.69;89.28;99045.50;4120156;28;20075;-74
2021/01/21 01:48:57;;;;;;;8.15;2.55;;;8.20;99.90;;;7.49;89.73;99060.94;4119032;28;20073;-74
2021/01/21 01:51:02;;;;;;;4.00;1.90;;;8.20;99.90;;;7.72;89.19;99087.13;4118605;28;20046;-75
2021/01/21 01:53:04;;;;;;;18.90;3.58;;;8.20;99.90;;;7.71;89.58;99094.19;4110724;28;853320;-75
2021/01/21 01:55:05;;;;;;;12.82;3.72;;;8.20;99.90;;;7.55;89.80;99065.47;4119645;28;20039;-75
2021/01/21 01:57:07;;;;;;;9.65;3.50;;;8.20;99.90;;;7.65;89.63;99100.13;4120457;28;20085;-75
2021/01/21 01:59:08;;;;;;;12.30;3.97;;;8.10;99.90;;;7.49;89.78;99076.66;4119499;28;20370;-75
2021/01/21 02:01:10;;;;;;;15.23;5.25;;;8.10;99.90;;;7.67;90.35;99116.53;4120777;28;20498;-75
2021/01/21 02:03:11;;;;;;;12.07;4.60;;;8.00;99.90;;;7.47;89.60;99091.75;4103811;28;20447;-75
2021/01/21 02:05:13;;;;;;;6.95;3.67;;;8.00;99.90;;;7.60;90.87;99115.59;4120656;28;20131;-75
2021/01/21 02:07:14;;;;;;;9.13;3.60;;;8.00;99.90;;;7.40;90.22;99088.22;4119495;28;20069;-75
2021/01/21 02:09:15;;;;;;;8.90;3.85;;;8.00;99.90;;;7.55;88.72;99110.06;4120670;28;20035;-75
2021/01/21 02:11:34;;;;;;;9.60;2.97;;;8.00;99.90;;;7.70;89.81;99145.06;4119463;28;20034;-75
2021/01/21 02:13:58;;;;;;;13.43;3.35;;;8.00;99.90;;;7.69;89.29;99146.03;4119612;28;20114;-75
2021/01/21 02:16:11;;;;;;;9.00;3.83;;;8.00;99.90;;;7.49;90.03;99155.38;4120659;28;20030;-75
2021/01/21 02:18:23;;;;;;;15.77;3.15;;;8.00;99.90;;;7.30;90.33;99126.16;4120573;28;20023;-75
2021/01/21 02:21:01;;;;;;;7.18;2.70;;;7.90;99.90;;;7.46;90.07;99160.16;4120049;28;20384;-75
2021/01/21 02:23:19;;;;;;;7.97;2.80;;;7.90;99.90;;;7.46;89.50;99166.22;4119325;28;20035;-75
2021/01/21 02:25:50;;;;;;;12.50;3.08;;;7.80;99.90;;;7.40;89.67;99172.16;4120580;28;20471;-75
2021/01/21 02:28:09;;;;;;;11.07;2.25;;;7.80;99.90;;;7.25;90.73;99179.13;4117629;28;20522;-75
2021/01/21 02:30:50;;;;;;;8.05;2.53;;;7.80;99.90;;;7.33;90.58;99180.88;4120450;28;20105;-75
2021/01/21 02:33:29;;;;;;;9.40;2.65;;;7.80;99.90;;;7.19;90.71;99178.03;4106842;28;20051;-75
2021/01/21 02:35:30;;;;;;;18.08;3.20;;;7.70;99.90;;;6.92;91.87;99165.38;4118916;28;20110;-75
2021/01/21 02:37:32;;;;;;;12.30;3.55;;;7.60;99.90;;;7.04;91.28;99155.31;4119043;28;20026;-76
2021/01/21 02:39:35;;;;;;;16.85;2.60;;;7.60;99.90;;;6.89;91.55;99138.69;4119287;28;20022;-75
2021/01/21 02:41:37;;;;;;;13.60;2.63;;;7.60;99.90;;;6.90;92.09;99153.44;4120975;28;20077;-75
2021/01/21 02:43:38;;;;;;;11.13;2.53;;;7.60;99.90;;;6.99;90.80;99157.66;4130279;28;20031;-75
2021/01/21 02:45:39;;;;;;;12.15;2.67;;;7.60;99.90;;;7.00;91.21;99164.50;4120106;28;20042;-75
2021/01/21 02:47:40;;;;;;;14.30;3.20;;;7.60;99.90;;;7.14;91.19;99203.94;4120043;28;20034;-75
2021/01/21 02:49:43;;;;;;;11.30;3.28;;;7.60;99.90;;;7.08;90.76;99188.88;4118419;28;20031;-75
2021/01/21 02:52:07;;;;;;;13.32;3.03;;;7.60;99.90;;;7.38;89.68;99212.69;4123809;28;20034;-75
2021/01/21 02:54:36;;;;;;;13.70;4.03;;;7.80;99.90;;;7.33;89.73;99228.91;4128501;28;20058;-75
2021/01/21 02:56:39;;;;;;;11.32;3.22;;;7.70;99.90;;;7.02;89.26;99184.31;4119662;28;20034;-74
2021/01/21 02:58:44;;;;;;;17.65;3.53;;;7.70;99.90;;;7.03;88.82;99193.84;4118535;28;20035;-75
2021/01/21 03:00:47;;;;;;;18.38;3.90;;;7.70;99.90;;;6.95;88.14;99180.78;4118826;28;20042;-75
2021/01/21 03:02:57;;;;;;;10.63;3.35;;;7.70;99.90;;;7.11;88.47;99191.16;4118840;28;20034;-75
2021/01/21 03:04:59;;;;;;;8.02;3.17;;;7.70;99.90;;;7.17;88.19;99215.88;4102636;28;20489;-74
2021/01/21 03:07:01;;;;;;;12.30;3.85;;;7.70;99.90;;;7.29;88.01;99217.13;4118398;28;20031;-75
2021/01/21 03:09:04;;;;;;;9.77;3.33;;;7.70;99.90;;;7.11;87.91;99220.00;4119747;28;20517;-75
2021/01/21 03:11:13;;;;;;;12.68;3.22;;;7.70;99.90;;;7.04;87.42;99194.66;4102170;28;20533;-75
2021/01/21 03:13:14;;;;;;;18.98;3.60;;;7.70;99.90;;;7.42;87.71;99254.13;4118376;28;20027;-75
2021/01/21 03:15:15;;;;;;;13.95;3.63;;;7.80;99.90;;;7.41;87.38;99241.97;4119691;28;20121;-74
2021/01/21 03:17:16;;;;;;;14.38;4.13;;;7.90;99.90;;;7.47;87.26;99258.84;4119407;28;20031;-75
2021/01/21 03:19:17;;;;;;;14.98;4.03;;;8.00;99.90;;;7.32;86.44;99219.41;4119456;28;20105;-74
2021/01/21 03:21:19;;;;;;;7.75;2.95;;;8.00;99.90;;;7.52;86.52;99244.25;4118430;28;20023;-75
2021/01/21 03:23:20;;;;;;;10.48;3.10;;;8.00;99.90;;;7.19;86.00;99191.13;4119516;28;20022;-74
2021/01/21 03:25:21;;;;;;;12.57;3.40;;;8.10;99.90;;;7.36;86.42;99218.09;4119142;28;20387;-75
2021/01/21 03:27:22;;;;;;;17.95;6.43;;;8.00;99.90;;;7.33;85.58;99212.34;4119509;28;20038;-74
2021/01/21 03:29:23;;;;;;;28.05;9.85;;;8.00;99.90;;;7.10;86.25;99191.34;4119601;28;20438;-75
2021/01/21 03:31:24;;;;;;;26.52;11.30;;;7.80;99.90;;;7.11;87.14;99225.25;4118315;28;20465;-75
2021/01/21 03:33:24;;;;;;;27.52;9.77;;;7.70;99.90;;;7.00;87.29;99222.19;4119117;28;20038;-75
2021/01/21 03:35:25;;;;;;;13.82;4.15;;;7.60;99.90;;;7.06;86.18;99219.72;4119417;28;20035;-75
2021/01/21 03:37:26;;;;;;;12.23;3.92;;;7.60;99.90;;;6.96;87.18;99207.81;4119497;28;20027;-75
2021/01/21 03:39:27;;;;;;;8.70;3.88;;;7.50;99.90;;;6.73;87.87;99222.59;4119253;28;20035;-75
2021/01/21 03:41:28;;;;;;;10.57;2.22;;;7.50;99.90;;;6.78;87.39;99221.13;4119273;28;20034;-75
2021/01/21 03:43:29;;;;;;;11.15;2.55;;;7.40;99.90;;;6.78;87.42;99242.06;4130841;28;20027;-75
2021/01/21 03:45:30;;;;;;;12.88;4.03;;;7.40;99.90;;;6.81;87.76;99235.72;4119537;28;20502;-75
2021/01/21 03:47:31;;;;;;;11.75;2.97;;;7.40;99.90;;;6.68;87.71;99197.75;4119299;28;20030;-75
2021/01/21 03:49:33;;;;;;;10.07;2.70;;;7.40;99.90;;;6.71;87.95;99204.44;4119248;28;20031;-75
2021/01/21 03:51:34;;;;;;;8.10;2.55;;;7.40;99.90;;;6.89;87.99;99212.09;4121901;28;20027;-75
2021/01/21 03:53:35;;;;;;;14.25;3.08;;;7.40;99.90;;;7.09;86.75;99223.78;4136414;28;20150;-75
2021/01/21 03:55:36;;;;;;;18.00;3.60;;;7.40;99.90;;;7.05;87.00;99219.88;4119092;28;20026;-74
2021/01/21 03:57:37;;;;;;;9.13;2.22;;;7.50;99.90;;;6.96;87.41;99219.09;4119044;28;20022;-75
2021/01/21 03:59:37;;;;;;;11.27;3.03;;;7.50;99.90;;;6.94;87.47;99238.59;4119377;28;20276;-75
2021/01/21 04:01:38;;;;;;;10.43;2.20;;;7.50;99.90;;;6.89;88.05;99238.28;4118470;28;20450;-75
2021/01/21 04:03:39;;;;;;;15.25;3.42;;;7.50;99.90;;;6.97;87.90;99233.00;4119130;28;20058;-75
2021/01/21 04:05:40;;;;;;;8.18;2.25;;;7.50;99.90;;;6.84;87.78;99251.88;4119294;28;20031;-75
2021/01/21 04:07:41;;;;;;;16.58;3.22;;;7.60;99.90;;;6.78;88.64;99255.19;4119478;28;20031;-75
2021/01/21 04:09:42;;;;;;;8.52;2.22;;;7.60;99.90;;;7.06;87.51;99281.81;4119297;28;20029;-75
2021/01/21 04:11:43;;;;;;;16.15;3.15;;;7.60;99.90;;;7.03;86.87;99259.38;4101836;28;20483;-74
2021/01/21 04:13:44;;;;;;;17.02;3.15;;;7.70;99.90;;;7.25;85.99;99268.31;4133905;28;20030;-75
2021/01/21 04:15:47;;;;;;;10.13;2.97;;;7.80;99.90;;;7.19;86.19;99269.00;4134110;28;20034;-75
2021/01/21 04:17:48;;;;;;;15.20;3.27;;;7.90;99.90;;;7.19;85.09;99263.75;4119048;28;20030;-75
2021/01/21 04:19:49;;;;;;;12.75;2.92;;;7.90;99.90;;;7.25;85.11;99286.66;4118255;28;20279;-75
2021/01/21 04:21:51;;;;;;;9.90;2.85;;;7.90;99.90;;;7.26;85.91;99306.66;4118013;28;20379;-75
2021/01/21 04:23:54;;;;;;;11.10;3.00;;;7.90;99.90;;;7.15;85.08;99273.75;4119079;28;20023;-75
2021/01/21 04:25:55;;;;;;;10.48;3.38;;;7.80;99.90;;;6.99;85.19;99280.88;4118993;28;20475;-74
2021/01/21 04:27:56;;;;;;;10.40;2.97;;;7.70;99.90;;;7.01;85.40;99278.88;4119221;28;20042;-74
2021/01/21 04:29:57;;;;;;;22.27;3.45;;;7.70;99.90;;;6.88;85.52;99282.03;4118035;28;20098;-74
2021/01/21 04:31:58;;;;;;;7.95;2.30;;;7.60;99.90;;;6.83;86.30;99283.53;4118835;28;20038;-75
2021/01/21 04:33:59;;;;;;;13.20;3.50;;;7.50;99.90;;;7.06;85.20;99310.66;4118146;28;20031;-75
2021/01/21 04:36:00;;;;;;;11.07;2.60;;;7.50;99.90;;;6.86;85.84;99294.50;4118865;28;20031;-75
2021/01/21 04:38:01;;;;;;;18.52;4.05;;;7.40;99.90;;;6.66;86.33;99280.09;4120352;28;20038;-75
2021/01/21 04:40:04;;;;;;;9.07;2.67;;;7.40;99.90;;;6.62;86.19;99252.63;4121888;28;20030;-75
2021/01/21 04:42:05;;;;;;;12.63;3.53;;;7.40;99.90;;;6.88;85.76;99307.41;4127088;28;20026;-75
2021/01/21 04:44:06;;;;;;;12.38;2.55;;;7.40;99.90;;;6.89;85.15;99290.72;4127127;28;20490;-75
2021/01/21 04:46:08;;;;;;;9.25;2.92;;;7.40;99.90;;;6.96;85.19;99294.31;4120878;28;20169;-75
2021/01/21 04:48:09;;;;;;;11.25;2.75;;;7.50;99.90;;;7.05;85.18;99340.47;4121604;28;20041;-75
2021/01/21 04:50:13;;;;;;;6.75;2.35;;;7.60;99.90;;;7.05;85.94;99319.50;4122056;28;20438;-74
2021/01/21 04:52:16;;;;;;;6.97;2.37;;;7.80;99.90;;;6.87;86.43;99283.00;4135023;28;20131;-75
2021/01/21 04:54:28;;;;;;;9.20;3.08;;;7.80;99.90;;;6.89;86.75;99288.91;4126882;28;20054;-75
2021/01/21 04:56:38;;;;;;;9.50;3.30;;;7.80;99.90;;;6.90;85.45;99300.22;4121808;28;20387;-75
2021/01/21 04:58:51;;;;;;;6.57;2.08;;;7.80;99.90;;;6.97;85.28;99309.84;4120382;28;20019;-75
2021/01/21 05:00:53;;;;;;;4.35;1.83;;;7.70;99.90;;;6.84;85.84;99308.75;4120219;28;20031;-75
2021/01/21 05:02:56;;;;;;;7.72;2.13;;;7.70;99.90;;;6.83;86.95;99315.78;4120356;28;20072;-75
2021/01/21 05:04:57;;;;;;;9.63;3.65;;;7.60;99.90;;;6.87;87.35;99332.00;4104454;28;20023;-75
2021/01/21 05:07:00;;;;;;;6.47;2.40;;;7.50;99.90;;;6.72;88.89;99313.50;4120778;28;20034;-75
2021/01/21 05:09:02;;;;;;;9.20;2.78;;;7.60;99.90;;;6.83;88.68;99305.31;4121292;28;20038;-75
2021/01/21 05:11:03;;;;;;;10.80;2.85;;;7.60;99.90;;;6.65;89.40;99292.41;4121720;28;20033;-75
2021/01/21 05:13:04;;;;;;;6.25;2.13;;;7.60;99.90;;;6.87;89.70;99311.84;4121476;28;20035;-75
2021/01/21 05:15:07;;;;;;;13.70;2.53;;;7.60;99.90;;;6.69;89.88;99295.50;4121576;28;20042;-75
2021/01/21 05:17:08;;;;;;;5.90;2.22;;;7.60;99.90;;;6.75;89.78;99275.69;4121105;28;20281;-75
2021/01/21 05:19:15;;;;;;;6.95;2.20;;;7.60;99.90;;;6.83;89.81;99302.69;4120646;28;20103;-75
2021/01/21 05:21:17;;;;;;;7.43;2.40;;;7.50;99.90;;;6.61;90.03;99285.03;4121640;28;20088;-75
2021/01/21 05:23:18;;;;;;;9.20;3.22;;;7.50;99.90;;;6.61;90.33;99279.78;4121401;28;20027;-74
2021/01/21 05:25:19;;;;;;;8.75;2.55;;;7.40;99.90;;;6.68;89.99;99286.84;4119949;28;20038;-74
2021/01/21 05:27:21;;;;;;;8.27;2.47;;;7.40;99.90;;;6.55;90.61;99289.13;4121151;28;20023;-74
2021/01/21 05:29:22;;;;;;;8.27;2.40;;;7.30;99.90;;;6.53;91.20;99304.22;4121274;28;20031;-74
2021/01/21 05:31:27;;;;;;;12.65;4.57;;;7.20;99.90;;;6.51;91.15;99284.41;4121012;28;20041;-74
2021/01/21 05:33:29;;;;;;;9.30;5.97;;;7.20;99.90;;;6.63;90.71;99299.59;4121093;28;20034;-75
2021/01/21 05:35:30;;;;;;;9.63;4.55;;;7.20;99.90;;;6.71;90.50;99300.56;4121205;28;20035;-75
2021/01/21 05:37:39;;;;;;;9.82;3.85;;;7.20;99.90;;;6.69;89.35;99298.94;4121108;28;20035;-75
2021/01/21 05:39:43;;;;;;;9.88;4.47;;;7.20;99.90;;;6.54;90.64;99290.09;4120872;28;20027;-75
2021/01/21 05:41:44;;;;;;;10.05;3.88;;;7.20;99.90;;;6.66;88.92;99291.41;4123456;28;20095;-75
2021/01/21 05:43:48;;;;;;;8.95;3.67;;;7.20;99.90;;;6.50;89.12;99272.28;4129258;28;20034;-75
2021/01/21 05:45:51;;;;;;;8.90;3.35;;;7.30;99.90;;;6.55;88.83;99286.50;4119826;28;20039;-75
2021/01/21 05:48:01;;;;;;;16.15;3.47;;;7.30;99.90;;;6.62;89.14;99302.41;4118843;28;20026;-75
2021/01/21 05:50:03;;;;;;;7.88;2.70;;;7.30;99.90;;;6.43;90.74;99281.78;4120366;28;20394;-75
2021/01/21 05:52:05;;;;;;;10.13;3.33;;;7.20;99.90;;;6.49;90.42;99289.81;4131249;28;20029;-75
2021/01/21 05:54:06;;;;;;;5.78;2.63;;;7.20;99.90;;;6.75;90.12;99326.28;4128200;28;20122;-75
2021/01/21 05:56:11;;;;;;;10.52;2.55;;;7.30;99.90;;;6.61;90.47;99300.75;4120546;28;20027;-74
2021/01/21 05:58:14;;;;;;;6.95;2.38;;;7.20;99.90;;;6.57;90.32;99296.84;4120645;28;20026;-75
2021/01/21 06:00:17;;;;;;;10.45;2.90;;;7.30;99.90;;;6.62;90.12;99289.31;4103652;28;20031;-75
2021/01/21 06:02:18;;;;;;;13.48;3.67;;;7.30;99.90;;;6.89;89.30;99315.13;4120494;28;20030;-75
2021/01/21 06:04:24;;;;;;;9.63;2.85;;;7.40;99.90;;;6.93;88.98;99321.66;4119588;28;20114;-75
2021/01/21 06:06:27;;;;;;;11.23;4.35;;;7.50;99.90;;;6.87;89.31;99318.91;4135318;28;20113;-75
2021/01/21 06:08:29;;;;;;;16.33;4.32;;;7.50;99.90;;;6.90;89.33;99306.25;4120319;28;20030;-75
2021/01/21 06:10:34;;;;;;;10.68;3.97;;;7.50;99.90;;;6.72;89.25;99299.59;4119353;28;20031;-75
2021/01/21 06:12:36;;;;;;;9.80;3.08;;;7.50;99.90;;;6.60;89.38;99293.91;4120229;28;20023;-75
2021/01/21 06:14:37;;;;;;;9.77;3.00;;;7.50;99.90;;;6.66;89.50;99298.44;4120703;28;20037;-75
2021/01/21 06:16:40;;;;;;;13.15;2.63;;;7.40;99.90;;;6.88;89.14;99331.00;4120033;28;20031;-75
2021/01/21 06:18:41;;;;;;;10.60;2.90;;;7.40;99.90;;;6.87;89.82;99332.00;4120338;28;20437;-74
2021/01/21 06:20:42;;;;;;;12.38;3.53;;;7.40;99.90;;;6.72;89.06;99302.22;4120280;28;20037;-75
2021/01/21 06:22:48;;;;;;;10.35;2.42;;;7.40;99.90;;;6.91;88.52;99338.53;4120480;28;20034;-74
2021/01/21 06:24:54;;;;;;;10.77;3.25;;;7.40;99.90;;;6.79;89.39;99317.09;4120077;28;20031;-74
2021/01/21 06:26:58;;;;;;;11.98;2.20;;;7.40;99.90;;;7.00;88.91;99338.34;4118736;28;20157;-74
2021/01/21 06:29:01;;;;;;;12.50;2.83;;;7.40;99.90;;;6.99;88.98;99328.06;4120174;28;20030;-74
2021/01/21 06:31:05;;;;;;;11.13;2.53;;;7.50;99.90;;;6.87;89.36;99321.53;4118844;28;20073;-74
2021/01/21 06:33:08;;;;;;;12.52;2.25;;;7.50;99.90;;;6.94;88.81;99328.53;4103087;28;20026;-74
2021/01/21 06:35:12;;;;;;;11.15;2.17;;;7.50;99.90;;;6.99;87.96;99301.84;4120243;28;20043;-75
2021/01/21 06:37:16;;;;;;;14.38;2.72;;;7.50;99.90;;;7.02;88.80;99315.41;4118888;28;20023;-74
2021/01/21 06:39:33;;;;;;;11.75;3.03;;;7.50;99.90;;;6.93;88.78;99313.78;4119978;28;20398;-75
2021/01/21 06:41:36;;;;;;;8.73;2.17;;;7.50;99.90;;;6.94;88.39;99294.47;4121397;28;20090;-75
2021/01/21 06:43:39;;;;;;;10.07;2.45;;;7.60;99.90;;;7.04;88.64;99325.75;4145585;28;20038;-75
2021/01/21 06:45:41;;;;;;;13.32;3.22;;;7.60;99.90;;;6.97;88.98;99311.66;4102723;28;20127;-75
2021/01/21 06:47:42;;;;;;;12.25;3.10;;;7.60;99.90;;;6.86;88.99;99283.19;4118902;28;20109;-75
2021/01/21 06:49:43;;;;;;;12.27;3.50;;;7.60;99.90;;;7.00;88.40;99303.47;4120123;28;20434;-75
2021/01/21 06:51:49;;;;;;;12.02;3.45;;;7.60;99.90;;;7.00;88.68;99316.56;4125016;28;20042;-75
2021/01/21 06:53:54;;;;;;;16.65;3.90;;;7.50;99.90;;;7.06;89.36;99332.44;4140736;28;20429;-74
2021/01/21 06:55:55;;;;;;;25.63;6.55;;;7.60;99.90;;;6.77;89.42;99294.66;4134858;28;20039;-75
2021/01/21 06:57:56;;;;;;;18.13;5.85;;;7.50;99.90;;;6.97;89.17;99301.16;4134922;28;20092;-75
2021/01/21 06:59:57;;;;;;;14.98;4.50;;;7.50;99.90;;;6.87;89.18;99303.19;4135703;28;20053;-74
2021/01/21 07:01:57;;;;;;;15.60;5.20;;;7.50;99.90;;;7.09;88.88;99319.00;4135746;28;20022;-73
2021/01/21 07:04:05;;;;;;;12.30;3.90;;;7.50;99.90;;;7.29;88.34;99334.38;4134717;28;20037;-76
2021/01/21 07:06:06;;;;;;;11.10;4.15;;;7.50;99.90;;;7.06;88.68;99308.03;4136028;28;20022;-75
2021/01/21 07:08:07;;;;;;;13.93;3.65;;;7.50;99.90;;;7.05;88.75;99298.50;4133734;28;20040;-75
2021/01/21 07:10:10;;;;;;;9.00;3.60;;;7.50;99.90;;;6.97;88.23;99280.19;4135859;28;20441;-74
2021/01/21 07:12:14;;;;;;;12.85;3.70;;;7.50;99.90;;;6.91;88.64;99279.06;4135471;28;20037;-74
2021/01/21 07:14:18;;;;;;;13.40;5.13;;;7.50;99.90;;;7.01;89.47;99311.16;4135858;28;20077;-74
2021/01/21 07:16:20;;;;;;;15.95;5.78;;;7.50;99.90;;;6.93;89.79;99292.03;4135149;28;20031;-74
2021/01/21 07:18:28;;;;;;;13.35;4.30;;;7.40;99.90;;;6.90;89.63;99297.59;4135726;28;20165;-74
2021/01/21 07:20:34;;;;;;;11.05;3.67;;;7.50;99.90;;;6.97;89.54;99315.09;4135576;28;20034;-74
2021/01/21 07:22:43;;;;;;;13.90;4.03;;;7.40;99.90;;;7.04;89.71;99316.06;4135474;28;20026;-74
2021/01/21 07:25:05;;;;;;;13.13;3.72;;;7.50;99.90;;;6.89;90.22;99319.53;4134218;28;20029;-75
2021/01/21 07:27:14;;;;;;;12.13;3.70;;;7.40;99.90;;;7.00;90.32;99320.00;4135080;28;20026;-74
2021/01/21 07:29:20;;;;;;;14.48;4.75;;;7.50;99.90;;;6.92;90.51;99316.59;4134832;28;20033;-74
2021/01/21 07:31:21;;;;;;;15.45;4.50;;;7.40;99.90;;;6.87;89.52;99290.88;4135336;28;20027;-75
2021/01/21 07:33:26;;;;;;;12.38;3.50;;;7.40;99.90;;;6.87;90.46;99295.31;4134225;28;20114;-74
2021/01/21 07:35:39;;;;;;;15.55;3.83;;;7.50;99.90;;;6.94;90.45;99312.00;4135650;28;20045;-74
2021/01/21 07:37:45;;;;;;;10.57;3.83;;;7.50;99.90;;;6.90;91.10;99300.22;4135010;28;20037;-74
2021/01/21 07:40:03;;;;;;;16.10;3.83;;;7.40;99.90;;;6.72;90.56;99308.25;4135306;28;20460;-74
2021/01/21 07:42:04;;;;;;;14.85;3.30;;;7.40;99.90;;;6.61;91.56;99292.88;4135297;28;20379;-74
2021/01/21 07:44:05;;;;;;;16.42;3.85;;;7.30;99.90;;;6.80;91.02;99316.13;4126192;28;20039;-73
2021/01/21 07:46:27;;;;;;;18.00;5.93;;;7.30;99.90;;;6.90;91.42;99316.75;4117659;28;20565;-73
2021/01/21 07:48:28;;;;;;;17.05;4.90;;;7.30;99.90;;;6.97;91.07;99312.47;4119313;28;20035;-72
2021/01/21 07:50:33;;;;;;;13.07;3.65;;;7.40;99.90;;;6.89;90.74;99293.34;4118058;28;20031;-74
2021/01/21 07:52:41;;;;;;;14.88;3.90;;;7.40;99.90;;;6.98;90.93;99306.25;4136055;28;20054;-75
2021/01/21 07:54:52;;;;;;;17.23;9.45;;;7.40;99.90;;;6.89;90.75;99285.47;4122185;28;20142;-74
2021/01/21 07:56:53;;;;;;;14.07;4.78;;;7.40;99.90;;;7.07;90.17;99301.81;4135460;28;20030;-74
2021/01/21 07:59:01;;;;;;;21.08;5.05;;;7.50;99.90;;;6.93;90.86;99287.56;4135771;28;20026;-75
2021/01/21 08:01:10;;;;;;;12.77;5.18;;;7.50;99.90;;;7.18;91.46;99301.44;4134102;28;20026;-74
2021/01/21 08:03:11;;;;;;;13.38;4.50;;;7.60;99.90;;;7.11;91.00;99271.63;4135767;28;20034;-74
2021/01/21 08:05:14;;;;;;;16.95;4.70;;;7.60;99.90;;;7.30;90.87;99292.22;4135581;28;20506;-75
2021/01/21 08:07:14;;;;;;;15.35;4.55;;;7.70;99.90;;;7.24;90.39;99291.09;4134518;28;20046;-74
2021/01/21 08:09:20;;;;;;;13.88;4.72;;;7.70;99.90;;;7.16;90.42;99275.41;4134626;28;20030;-75
2021/01/21 08:11:23;;;;;;;15.07;4.80;;;7.70;99.90;;;7.09;90.71;99289.34;4118821;28;20485;-74
2021/01/21 08:13:24;;;;;;;16.60;5.70;;;7.70;99.90;;;7.19;90.43;99290.78;4120784;28;20082;-75
2021/01/21 08:15:27;;;;;;;11.00;5.57;;;7.70;99.90;;;7.22;89.56;99281.75;4138624;28;20065;-74
2021/01/21 08:17:28;;;;;;;12.18;5.18;;;7.80;99.90;;;7.34;90.56;99288.28;4138794;28;20053;-75
2021/01/21 08:19:29;;;;;;;13.45;5.28;;;7.90;99.90;;;7.26;89.77;99284.88;4138759;28;20022;-75
2021/01/21 08:21:30;;;;;;;19.13;7.00;;;7.80;99.90;;;7.32;89.81;99289.44;4137477;28;20057;-75
2021/01/21 08:23:31;;;;;;;15.68;5.78;;;7.90;99.90;;;7.11;90.29;99264.56;4138612;28;20029;-74
2021/01/21 08:25:43;;;;;;;18.65;6.15;;;7.90;99.90;;;7.17;90.55;99270.94;4138431;28;20026;-74
2021/01/21 08:27:49;;;;;;;15.95;6.60;;;7.90;99.90;;;7.28;90.38;99278.47;4138400;28;20037;-75
2021/01/21 08:29:50;;;;;;;18.15;5.18;;;7.90;99.90;;;7.33;89.97;99281.38;4137461;28;20040;-75
2021/01/21 08:31:51;;;;;;;9.40;3.65;;;7.90;99.90;;;7.29;89.95;99285.31;4137256;28;20117;-75
2021/01/21 08:33:52;;;;;;;14.98;4.55;;;8.00;99.90;;;7.47;90.35;99298.19;4137525;28;20103;-75
2021/01/21 08:36:06;;;;;;;15.80;4.63;;;8.00;99.90;;;7.43;89.42;99286.44;4137386;28;20076;-75
2021/01/21 08:38:13;;;;;;;21.77;7.18;;;8.00;99.90;;;7.50;90.19;99293.41;4138333;28;20029;-75
2021/01/21 08:40:14;;;;;;;15.10;6.82;;;8.10;99.90;;;7.47;90.67;99288.50;4137414;28;20407;-75
2021/01/21 08:42:15;;;;;;;29.77;10.13;;;8.10;99.90;;;7.44;90.76;99283.63;4138071;28;20025;-75
2021/01/21 08:44:17;;;;;;;18.88;8.80;;;8.10;99.90;;;7.53;91.33;99293.09;4127462;28;20031;-75
2021/01/21 08:46:22;;;;;;;20.83;7.47;;;8.20;99.90;;;7.43;91.63;99263.63;4120921;28;20034;-75
2021/01/21 08:48:34;;;;;;;12.65;3.92;;;8.20;99.90;;;7.73;91.74;99273.31;4122253;28;20030;-75